< < Back
Terminal Aerodrome Forecast


Current Version              Previous Versions:   1  2  3  4  5  6  7  8  9  

Terminal Aerodrome Forecast

095
FTUS42 KFFC 281727
TAFCSG
TAF
KCSG 281727Z 2818/2918 10006KT P6SM BKN050
     FM290400 VRB03KT P6SM FEW040 BKN250
     FM291500 01005KT P6SM SCT060=

Latest METAR

629
SAUS70 KWBC 291100
MTRCSG
METAR KCSG 291051Z AUTO 00000KT 10SM CLR 18/17 A3010 RMK AO2 SLP189
T01830167


USA.gov is the U.S. government's official web portal to all federal, state and local government web resources and services.